Time;durP1;ratioP1;P1;durP2;ratioP2;P2;SDS_P1;SDS_P2;PMS_P1;PMS_P2;Temp;Humidity;BMP_temperature;BMP_pressure;BME280_temperature;BME280_humidity;BME280_pressure;Samples;Min_cycle;Max_cycle;Signal;HPM_P1;HPM_P2
2024/03/22 01:13:29;;;;;;;20.90;11.13;;;15.80;81.60;;;;;;5069935;28;20135;-71
2024/03/22 01:15:55;;;;;;;20.10;10.70;;;15.70;81.80;;;;;;5092454;28;20052;-73
2024/03/22 01:18:20;;;;;;;18.45;11.07;;;15.70;82.20;;;;;;5094893;28;20044;-71
2024/03/22 01:20:46;;;;;;;16.33;10.90;;;15.60;82.10;;;;;;5095320;28;20040;-71
2024/03/22 01:23:12;;;;;;;18.15;11.43;;;15.50;82.70;;;;;;5094697;28;20099;-72
2024/03/22 01:25:37;;;;;;;17.65;12.55;;;15.50;83.20;;;;;;5094834;28;20060;-70
2024/03/22 01:28:04;;;;;;;18.58;12.52;;;15.50;83.60;;;;;;5076583;28;20070;-72
2024/03/22 01:30:29;;;;;;;22.70;13.65;;;15.50;83.90;;;;;;5094823;28;20028;-72
2024/03/22 01:32:55;;;;;;;19.77;12.57;;;15.40;84.20;;;;;;5094760;28;20039;-71
2024/03/22 01:35:21;;;;;;;18.92;12.68;;;15.40;84.40;;;;;;5094457;28;20110;-72
2024/03/22 01:37:47;;;;;;;21.65;14.52;;;15.40;84.70;;;;;;5094069;28;20044;-72
2024/03/22 01:40:13;;;;;;;23.52;15.60;;;15.40;85.40;;;;;;5094555;28;20032;-72
2024/03/22 01:42:39;;;;;;;20.25;14.98;;;15.30;85.50;;;;;;5094416;28;20029;-71
2024/03/22 01:45:05;;;;;;;19.60;16.33;;;15.30;86.00;;;;;;5094638;28;20388;-72
2024/03/22 01:47:31;;;;;;;20.33;15.75;;;15.30;86.50;;;;;;5094691;28;20101;-70
2024/03/22 01:49:57;;;;;;;20.13;15.48;;;15.20;86.90;;;;;;5094387;28;20484;-70
2024/03/22 01:52:24;;;;;;;21.80;14.52;;;15.20;87.80;;;;;;5094335;28;20032;-71
2024/03/22 01:54:50;;;;;;;24.35;15.95;;;15.20;87.60;;;;;;5094074;28;20043;-72
2024/03/22 01:57:15;;;;;;;20.98;15.38;;;15.20;87.80;;;;;;5093905;28;20059;-72
2024/03/22 01:59:41;;;;;;;19.58;14.20;;;15.20;87.70;;;;;;5094053;28;20058;-71
2024/03/22 02:02:07;;;;;;;23.55;13.13;;;15.20;88.10;;;;;;5094343;28;20046;-71
2024/03/22 02:04:33;;;;;;;21.88;14.07;;;15.10;88.10;;;;;;5094048;28;20040;-70
2024/03/22 02:06:58;;;;;;;22.48;14.38;;;15.10;88.40;;;;;;5094054;28;20032;-71
2024/03/22 02:09:25;;;;;;;19.25;13.18;;;15.10;88.50;;;;;;5093891;28;20041;-73
2024/03/22 02:11:51;;;;;;;20.92;12.63;;;15.10;88.80;;;;;;5094195;28;20024;-71
2024/03/22 02:14:16;;;;;;;17.60;12.88;;;15.10;88.90;;;;;;5093832;28;20055;-71
2024/03/22 02:16:42;;;;;;;16.85;12.45;;;15.10;88.80;;;;;;5093882;28;20036;-71
2024/03/22 02:19:08;;;;;;;16.70;12.38;;;15.10;88.80;;;;;;5093961;28;20500;-72
2024/03/22 02:21:34;;;;;;;20.23;12.30;;;15.10;88.90;;;;;;5093999;28;20028;-71
2024/03/22 02:24:00;;;;;;;15.52;11.48;;;15.10;89.20;;;;;;5075583;28;20108;-72
2024/03/22 02:26:26;;;;;;;15.20;12.02;;;15.10;89.10;;;;;;5093568;28;20341;-71
2024/03/22 02:28:51;;;;;;;17.77;10.82;;;15.10;89.30;;;;;;5093551;28;20131;-71
2024/03/22 02:31:17;;;;;;;15.23;10.75;;;15.10;89.20;;;;;;5092802;28;20051;-72
2024/03/22 02:33:43;;;;;;;18.55;10.93;;;15.00;89.40;;;;;;5093572;28;20040;-71
2024/03/22 02:36:09;;;;;;;15.82;11.35;;;15.10;89.70;;;;;;5093306;28;20142;-71
2024/03/22 02:38:35;;;;;;;14.70;11.90;;;15.10;89.60;;;;;;5093380;28;20028;-71
2024/03/22 02:41:00;;;;;;;17.40;10.88;;;15.10;89.80;;;;;;5093444;28;20054;-71
2024/03/22 02:43:26;;;;;;;20.60;12.15;;;15.10;89.90;;;;;;5093784;28;20036;-72
2024/03/22 02:45:51;;;;;;;17.23;11.20;;;15.10;90.00;;;;;;5075013;28;20139;-72
2024/03/22 02:48:17;;;;;;;18.55;11.02;;;15.10;90.10;;;;;;5093389;28;20036;-71
2024/03/22 02:50:43;;;;;;;16.08;11.10;;;15.10;90.10;;;;;;5093169;28;20036;-71
2024/03/22 02:53:08;;;;;;;16.65;11.60;;;15.10;90.10;;;;;;5093265;28;20163;-71
2024/03/22 02:55:39;;;;;;;18.27;10.52;;;15.10;90.20;;;;;;5093204;28;20040;-72
2024/03/22 02:58:05;;;;;;;15.82;10.40;;;15.10;90.20;;;;;;5093168;28;20028;-72
2024/03/22 03:00:31;;;;;;;17.23;10.77;;;15.10;90.10;;;;;;5074771;28;20548;-71
2024/03/22 03:02:57;;;;;;;17.63;10.88;;;15.00;90.00;;;;;;5091564;28;20381;-72
2024/03/22 03:05:23;;;;;;;15.68;10.57;;;15.10;90.10;;;;;;5091675;28;20027;-72
2024/03/22 03:07:50;;;;;;;16.63;10.77;;;15.10;90.10;;;;;;5093123;28;20484;-70
2024/03/22 03:10:16;;;;;;;13.55;9.85;;;15.10;90.00;;;;;;5093294;28;20028;-70
2024/03/22 03:12:42;;;;;;;18.23;10.52;;;15.10;90.00;;;;;;5092848;28;20036;-69
2024/03/22 03:15:08;;;;;;;15.60;10.43;;;15.10;90.00;;;;;;5092708;28;20055;-72
2024/03/22 03:17:33;;;;;;;18.23;11.27;;;15.10;90.10;;;;;;5092977;28;20086;-71
2024/03/22 03:19:59;;;;;;;16.23;11.75;;;15.10;90.20;;;;;;5091579;28;20186;-71
2024/03/22 03:22:25;;;;;;;16.77;11.60;;;15.00;90.10;;;;;;5092830;28;20056;-71
2024/03/22 03:24:50;;;;;;;16.95;10.63;;;14.90;90.20;;;;;;5092644;28;20090;-71
2024/03/22 03:27:16;;;;;;;18.00;11.02;;;14.80;90.40;;;;;;5092763;28;20486;-72
2024/03/22 03:29:42;;;;;;;13.55;10.88;;;14.70;90.40;;;;;;5092363;28;20028;-70
2024/03/22 03:32:08;;;;;;;14.82;10.38;;;14.70;90.50;;;;;;5092708;28;20031;-71
2024/03/22 03:34:33;;;;;;;16.38;11.38;;;14.80;90.60;;;;;;5092539;28;20044;-71
2024/03/22 03:37:01;;;;;;;19.63;11.07;;;14.80;90.50;;;;;;5092913;28;20572;-71
2024/03/22 03:39:27;;;;;;;14.77;11.40;;;14.80;90.50;;;;;;5092588;28;20077;-71
2024/03/22 03:41:52;;;;;;;16.65;11.13;;;14.80;90.60;;;;;;5092229;28;20036;-71
2024/03/22 03:44:18;;;;;;;18.38;11.98;;;14.70;90.60;;;;;;5092424;28;20571;-71
2024/03/22 03:46:44;;;;;;;13.63;10.43;;;14.70;90.60;;;;;;5092217;28;21133;-71
2024/03/22 03:49:10;;;;;;;16.70;11.90;;;14.60;90.80;;;;;;5092187;28;20032;-70
2024/03/22 03:51:35;;;;;;;17.50;11.60;;;14.60;90.80;;;;;;5073807;28;20507;-70
2024/03/22 03:54:01;;;;;;;17.20;11.25;;;14.50;90.90;;;;;;5092272;28;20044;-71
2024/03/22 03:56:27;;;;;;;16.10;11.68;;;14.40;90.90;;;;;;5092316;28;20425;-71
2024/03/22 03:58:54;;;;;;;15.63;11.13;;;14.40;91.00;;;;;;5092169;28;20492;-71
2024/03/22 04:01:19;;;;;;;18.20;12.55;;;14.50;91.10;;;;;;5074089;28;20082;-70
2024/03/22 04:03:45;;;;;;;16.85;11.30;;;14.50;91.10;;;;;;5092138;28;20036;-72
2024/03/22 04:06:10;;;;;;;15.00;11.45;;;14.60;91.20;;;;;;5091980;28;20484;-72
2024/03/22 04:08:36;;;;;;;22.02;12.45;;;14.60;91.20;;;;;;5091991;28;20043;-71
2024/03/22 04:11:02;;;;;;;15.85;11.25;;;14.60;91.20;;;;;;5092041;28;20028;-72
2024/03/22 04:13:28;;;;;;;17.05;11.38;;;14.60;91.20;;;;;;5091889;28;20043;-70
2024/03/22 04:15:54;;;;;;;17.35;11.13;;;14.70;91.20;;;;;;5091972;28;20420;-70
2024/03/22 04:18:20;;;;;;;16.98;11.50;;;14.70;91.20;;;;;;5100596;22;20048;-71
2024/03/22 04:20:59;;;;;;;17.98;11.85;;;14.80;91.30;;;;;;5092081;28;20032;-71
2024/03/22 04:23:25;;;;;;;15.27;11.45;;;14.80;91.30;;;;;;5092087;28;20397;-71
2024/03/22 04:25:59;;;;;;;17.65;12.18;;;14.80;91.40;;;;;;5092091;28;20072;-71
2024/03/22 04:28:28;;;;;;;16.45;12.32;;;14.80;91.40;;;;;;5091984;28;20399;-71
2024/03/22 04:31:01;;;;;;;18.20;12.25;;;14.80;91.30;;;;;;5092172;28;20032;-71
2024/03/22 04:33:27;;;;;;;16.00;12.32;;;14.80;91.50;;;;;;5092128;28;20094;-71
2024/03/22 04:35:54;;;;;;;16.58;11.82;;;14.70;91.60;;;;;;5092193;28;20040;-71
2024/03/22 04:38:20;;;;;;;17.63;12.35;;;14.70;91.60;;;;;;5091904;28;20040;-71
2024/03/22 04:40:46;;;;;;;19.48;13.38;;;14.80;91.70;;;;;;5092007;28;20086;-72
2024/03/22 04:43:11;;;;;;;17.02;13.25;;;14.80;91.70;;;;;;5092178;28;20020;-72
2024/03/22 04:45:37;;;;;;;15.85;12.50;;;14.80;91.70;;;;;;5092038;28;20032;-71
2024/03/22 04:48:04;;;;;;;16.15;13.05;;;14.70;91.80;;;;;;5091760;28;20488;-71
2024/03/22 04:50:30;;;;;;;17.27;12.70;;;14.70;91.90;;;;;;5092302;28;20031;-71
2024/03/22 04:52:56;;;;;;;18.40;14.00;;;14.70;92.00;;;;;;5091869;28;20040;-71
2024/03/22 04:55:21;;;;;;;18.67;12.68;;;14.80;92.00;;;;;;5094733;28;20051;-71
2024/03/22 04:57:48;;;;;;;18.88;13.65;;;14.80;92.00;;;;;;5095517;28;20123;-70
2024/03/22 05:00:14;;;;;;;18.33;13.90;;;14.90;92.20;;;;;;5094038;28;20107;-70
2024/03/22 05:02:40;;;;;;;18.48;13.93;;;14.90;92.30;;;;;;5095694;28;20028;-70
2024/03/22 05:05:07;;;;;;;18.13;14.00;;;14.90;92.30;;;;;;5095332;28;20115;-72
2024/03/22 05:07:33;;;;;;;17.63;15.10;;;14.90;92.40;;;;;;5095269;28;20070;-70
2024/03/22 05:09:59;;;;;;;24.02;18.48;;;15.00;92.30;;;;;;5095375;28;20039;-71
2024/03/22 05:12:24;;;;;;;25.33;19.10;;;15.00;92.50;;;;;;5095378;28;20027;-71
2024/03/22 05:14:50;;;;;;;24.75;20.00;;;14.90;92.60;;;;;;5093757;28;20436;-74
2024/03/22 05:17:16;;;;;;;27.13;21.20;;;14.90;92.70;;;;;;5094037;28;20040;-71
2024/03/22 05:19:41;;;;;;;27.85;21.33;;;14.80;92.80;;;;;;5095165;28;20032;-71
2024/03/22 05:22:07;;;;;;;27.60;20.65;;;14.80;92.90;;;;;;5094841;28;20380;-71
2024/03/22 05:24:32;;;;;;;24.17;18.05;;;14.70;93.00;;;;;;5094931;28;20498;-71
2024/03/22 05:26:59;;;;;;;22.83;16.38;;;14.60;93.00;;;;;;5094960;28;20032;-71
2024/03/22 05:29:25;;;;;;;22.30;15.90;;;14.50;93.20;;;;;;5095305;28;20078;-72
2024/03/22 05:31:51;;;;;;;20.65;15.52;;;14.50;93.10;;;;;;5094813;28;20032;-71
2024/03/22 05:34:17;;;;;;;23.33;15.80;;;14.50;93.30;;;;;;5094736;28;20396;-71
2024/03/22 05:36:45;;;;;;;24.40;16.65;;;14.50;93.20;;;;;;5094577;28;20432;-72
2024/03/22 05:39:11;;;;;;;21.45;15.80;;;14.50;93.20;;;;;;5094466;28;20507;-71
2024/03/22 05:41:37;;;;;;;19.10;15.68;;;14.60;93.30;;;;;;5094841;28;20391;-71
2024/03/22 05:44:03;;;;;;;21.85;15.95;;;14.50;93.20;;;;;;5094638;28;20438;-72
2024/03/22 05:46:31;;;;;;;21.02;15.45;;;14.50;93.40;;;;;;5094434;28;20024;-71
2024/03/22 05:48:58;;;;;;;19.45;15.57;;;14.50;93.50;;;;;;5094502;28;20561;-71
2024/03/22 05:51:24;;;;;;;18.83;14.52;;;14.60;93.40;;;;;;5094180;28;20024;-72
2024/03/22 05:53:50;;;;;;;18.75;14.73;;;14.70;93.40;;;;;;5094232;28;20036;-71
2024/03/22 05:56:16;;;;;;;22.40;14.50;;;14.70;93.40;;;;;;5094158;28;20492;-72
2024/03/22 05:58:41;;;;;;;17.27;13.63;;;14.70;93.30;;;;;;5094437;28;20047;-72
2024/03/22 06:01:07;;;;;;;18.63;14.50;;;14.60;93.30;;;;;;5092760;28;20055;-72
2024/03/22 06:03:33;;;;;;;18.75;14.00;;;14.60;93.40;;;;;;5094003;28;20062;-71
2024/03/22 06:06:00;;;;;;;18.58;14.45;;;14.50;93.40;;;;;;5093939;28;20471;-71
2024/03/22 06:08:29;;;;;;;17.08;13.65;;;14.50;93.50;;;;;;5093923;28;20038;-72
2024/03/22 06:10:58;;;;;;;15.38;12.90;;;14.50;93.70;;;;;;5094064;28;20035;-72
2024/03/22 06:13:24;;;;;;;16.98;13.65;;;14.60;93.60;;;;;;5094097;28;20025;-73
2024/03/22 06:15:50;;;;;;;16.13;12.82;;;15.00;93.30;;;;;;5093805;28;20044;-72
2024/03/22 06:18:16;;;;;;;16.38;12.75;;;15.60;92.80;;;;;;5093689;28;20044;-72
2024/03/22 06:20:42;;;;;;;16.88;12.57;;;16.30;92.00;;;;;;5092668;28;20032;-72
2024/03/22 06:23:08;;;;;;;15.88;12.40;;;16.90;91.20;;;;;;5094123;28;20028;-70
2024/03/22 06:25:34;;;;;;;16.92;11.88;;;17.50;90.60;;;;;;5093600;28;20047;-73
2024/03/22 06:27:59;;;;;;;16.48;12.02;;;17.80;89.80;;;;;;5092195;28;20379;-71
2024/03/22 06:30:25;;;;;;;14.32;11.57;;;18.10;89.00;;;;;;5093635;28;20028;-72
2024/03/22 06:32:51;;;;;;;16.58;11.38;;;18.70;87.40;;;;;;5093628;28;20154;-71
2024/03/22 06:35:16;;;;;;;14.25;11.40;;;19.30;85.80;;;;;;5093338;28;20453;-71
2024/03/22 06:37:42;;;;;;;14.68;11.00;;;19.50;84.70;;;;;;5093327;28;20032;-71
2024/03/22 06:40:09;;;;;;;15.93;11.07;;;20.00;83.90;;;;;;5093347;28;20032;-72
2024/03/22 06:42:35;;;;;;;14.63;10.95;;;20.50;82.30;;;;;;5093598;28;20487;-71
2024/03/22 06:45:02;;;;;;;16.65;11.93;;;21.00;81.60;;;;;;5093469;28;20035;-72
2024/03/22 06:47:27;;;;;;;13.23;10.38;;;21.70;79.80;;;;;;5093341;28;20036;-72
2024/03/22 06:49:53;;;;;;;15.77;10.73;;;22.20;78.10;;;;;;5093036;28;20035;-72
2024/03/22 06:52:19;;;;;;;19.45;13.80;;;22.60;76.90;;;;;;5093093;28;20038;-71
2024/03/22 06:54:45;;;;;;;14.60;10.00;;;22.80;75.50;;;;;;5093085;28;20496;-71
2024/03/22 06:57:11;;;;;;;13.43;9.52;;;23.30;74.50;;;;;;5093256;28;20031;-72
2024/03/22 06:59:37;;;;;;;15.68;10.48;;;23.60;73.60;;;;;;5093461;28;20032;-73
2024/03/22 07:02:04;;;;;;;13.07;9.25;;;23.50;73.50;;;;;;5093004;28;20058;-72
2024/03/22 07:04:30;;;;;;;13.75;9.68;;;23.50;73.10;;;;;;5074649;28;20028;-72
2024/03/22 07:06:55;;;;;;;11.07;9.32;;;23.70;71.70;;;;;;5092961;28;20054;-72
2024/03/22 07:09:21;;;;;;;11.38;8.45;;;24.00;71.00;;;;;;5092896;28;20479;-70
2024/03/22 07:11:48;;;;;;;15.88;10.98;;;24.00;69.90;;;;;;5092647;28;20392;-72
2024/03/22 07:14:13;;;;;;;13.40;9.52;;;24.40;69.70;;;;;;5092673;28;20040;-72
2024/03/22 07:16:39;;;;;;;12.85;9.52;;;24.60;68.80;;;;;;5091873;28;20039;-71
2024/03/22 07:19:05;;;;;;;14.90;10.13;;;24.60;67.90;;;;;;5092323;28;20044;-70
2024/03/22 07:21:31;;;;;;;14.45;10.45;;;23.60;68.90;;;;;;5091528;28;20020;-71
2024/03/22 07:23:57;;;;;;;15.27;11.07;;;22.60;70.60;;;;;;5092694;28;20054;-71
2024/03/22 07:26:22;;;;;;;13.05;10.77;;;21.90;72.10;;;;;;5092376;28;20028;-73
2024/03/22 07:28:48;;;;;;;13.95;10.95;;;21.20;73.80;;;;;;5092505;28;20070;-71
2024/03/22 07:31:14;;;;;;;13.60;10.88;;;20.70;75.10;;;;;;5092549;28;20415;-72
2024/03/22 07:33:39;;;;;;;16.38;11.18;;;20.50;75.90;;;;;;5092380;28;20062;-72
2024/03/22 07:36:06;;;;;;;15.25;10.90;;;20.70;75.80;;;;;;5092345;28;20494;-72
2024/03/22 07:38:32;;;;;;;15.68;10.90;;;20.60;75.50;;;;;;5092536;28;20040;-71
2024/03/22 07:40:58;;;;;;;17.33;11.95;;;20.30;75.60;;;;;;5092532;28;20130;-72
2024/03/22 07:43:23;;;;;;;19.58;11.93;;;20.10;76.30;;;;;;5092576;28;20111;-73
2024/03/22 07:45:49;;;;;;;18.13;13.68;;;19.90;76.90;;;;;;5092253;28;20471;-72
2024/03/22 07:48:15;;;;;;;15.82;13.00;;;19.50;77.40;;;;;;5092244;28;20103;-71
2024/03/22 07:50:41;;;;;;;20.35;12.88;;;19.30;78.10;;;;;;5090718;28;20388;-72
2024/03/22 07:53:07;;;;;;;16.48;12.20;;;19.10;78.70;;;;;;5092384;28;20028;-72
2024/03/22 07:55:33;;;;;;;17.20;12.32;;;18.90;79.10;;;;;;5092058;28;20067;-72
2024/03/22 07:57:58;;;;;;;17.40;13.20;;;18.70;79.50;;;;;;5092225;28;20051;-72
2024/03/22 08:00:27;;;;;;;16.45;13.10;;;18.50;79.90;;;;;;5091991;28;20482;-73
2024/03/22 08:02:53;;;;;;;16.17;12.82;;;18.40;80.00;;;;;;5091979;28;20028;-72
2024/03/22 08:05:19;;;;;;;18.73;13.35;;;18.50;80.40;;;;;;5092036;28;20517;-73
2024/03/22 08:07:45;;;;;;;18.50;13.30;;;18.50;80.50;;;;;;5090787;28;20118;-73
2024/03/22 08:10:10;;;;;;;19.98;13.05;;;18.50;80.40;;;;;;5092289;28;20086;-72
2024/03/22 08:12:36;;;;;;;17.67;12.93;;;18.40;80.40;;;;;;5092638;28;20052;-71
2024/03/22 08:15:02;;;;;;;15.90;11.93;;;18.30;80.80;;;;;;5092110;28;20418;-70
2024/03/22 08:17:28;;;;;;;16.58;12.18;;;18.10;81.10;;;;;;5092237;28;20040;-72
2024/03/22 08:19:54;;;;;;;17.75;11.85;;;18.10;81.20;;;;;;5092179;28;20035;-72
2024/03/22 08:22:19;;;;;;;17.60;11.65;;;18.10;81.40;;;;;;5092327;28;20031;-71
2024/03/22 08:24:45;;;;;;;18.00;11.68;;;18.10;81.30;;;;;;5092422;28;20032;-73
2024/03/22 08:27:11;;;;;;;15.88;11.90;;;18.00;81.30;;;;;;5092677;28;20098;-73
2024/03/22 08:29:38;;;;;;;15.02;11.70;;;18.00;81.60;;;;;;5093970;28;20070;-72
2024/03/22 08:32:04;;;;;;;19.73;11.68;;;18.00;81.60;;;;;;5096045;28;20491;-73
2024/03/22 08:34:32;;;;;;;15.82;11.13;;;17.90;81.40;;;;;;5094910;28;20434;-71
2024/03/22 08:36:58;;;;;;;13.48;10.43;;;18.00;81.60;;;;;;5096115;28;20032;-72
2024/03/22 08:39:24;;;;;;;15.10;11.93;;;18.00;81.60;;;;;;5096128;28;20115;-72
2024/03/22 08:41:50;;;;;;;14.63;10.80;;;18.00;81.50;;;;;;5095950;28;20470;-73
2024/03/22 08:44:16;;;;;;;18.10;10.20;;;17.90;81.30;;;;;;5095499;28;20071;-73
2024/03/22 08:46:42;;;;;;;16.73;10.27;;;17.90;81.30;;;;;;5095694;28;20060;-72
2024/03/22 08:49:08;;;;;;;13.43;10.23;;;17.90;81.30;;;;;;5095809;28;20081;-72
2024/03/22 08:51:33;;;;;;;14.00;10.73;;;17.70;81.20;;;;;;5095586;28;20086;-73
2024/03/22 08:54:00;;;;;;;15.55;9.77;;;17.70;81.50;;;;;;5095324;28;20032;-74
2024/03/22 08:56:26;;;;;;;15.30;10.20;;;17.70;81.60;;;;;;5095635;28;20313;-72
2024/03/22 08:58:52;;;;;;;15.10;10.15;;;17.70;81.10;;;;;;5095528;28;20047;-73
2024/03/22 09:01:17;;;;;;;16.50;10.02;;;17.70;81.10;;;;;;5095192;28;20107;-72
2024/03/22 09:03:46;;;;;;;15.18;10.48;;;17.60;81.10;;;;;;5095591;28;20032;-72
2024/03/22 09:06:12;;;;;;;14.73;9.75;;;17.70;80.90;;;;;;5095342;28;20443;-72
2024/03/22 09:08:38;;;;;;;16.67;10.43;;;17.70;80.90;;;;;;5095465;28;20032;-73
2024/03/22 09:11:03;;;;;;;12.48;9.25;;;17.90;80.80;;;;;;5095507;28;20098;-74
2024/03/22 09:13:29;;;;;;;14.10;9.50;;;18.00;80.60;;;;;;5076768;28;20111;-74
2024/03/22 09:15:58;;;;;;;12.45;9.32;;;18.10;80.20;;;;;;5095316;28;20403;-73
2024/03/22 09:18:24;;;;;;;14.50;9.75;;;18.10;79.90;;;;;;5095050;28;20559;-72
2024/03/22 09:20:50;;;;;;;15.57;10.18;;;18.10;79.60;;;;;;5076650;28;20036;-72
2024/03/22 09:23:16;;;;;;;14.00;10.95;;;18.10;79.50;;;;;;5093706;28;20051;-71
2024/03/22 09:25:41;;;;;;;14.23;10.85;;;18.20;79.50;;;;;;5094977;28;20036;-74
2024/03/22 09:28:07;;;;;;;12.77;10.18;;;18.30;79.60;;;;;;5095276;28;20078;-73
2024/03/22 09:30:37;;;;;;;12.95;8.80;;;18.40;79.30;;;;;;5094796;28;20089;-73
2024/03/22 09:33:03;;;;;;;12.07;9.10;;;18.40;78.40;;;;;;5095029;28;20107;-73
2024/03/22 09:35:29;;;;;;;13.80;10.43;;;18.50;78.70;;;;;;5076385;28;20083;-73
2024/03/22 09:37:54;;;;;;;14.68;9.70;;;18.60;78.60;;;;;;5094800;28;20060;-74
2024/03/22 09:40:20;;;;;;;13.77;9.98;;;18.60;78.50;;;;;;5094175;28;20399;-73
2024/03/22 09:42:48;;;;;;;15.07;9.45;;;18.50;78.60;;;;;;5094612;28;20099;-74
2024/03/22 09:45:18;;;;;;;13.20;9.32;;;18.50;78.80;;;;;;5094679;28;20059;-73
2024/03/22 09:47:45;;;;;;;13.48;9.13;;;18.50;77.70;;;;;;5094371;28;20487;-73
2024/03/22 09:50:12;;;;;;;11.80;8.48;;;18.50;77.70;;;;;;5094623;28;20573;-72
2024/03/22 09:52:38;;;;;;;16.63;9.27;;;18.40;77.40;;;;;;5094403;28;20028;-72
2024/03/22 09:55:08;;;;;;;13.52;9.63;;;18.40;77.40;;;;;;5076154;28;20140;-72
2024/03/22 09:57:40;;;;;;;11.43;8.15;;;18.40;77.70;;;;;;5094013;28;20039;-73
2024/03/22 10:00:08;;;;;;;15.70;8.75;;;18.50;77.80;;;;;;5094198;28;20077;-74
2024/03/22 10:02:34;;;;;;;16.67;8.18;;;18.60;77.70;;;;;;5094503;28;20032;-73
2024/03/22 10:04:59;;;;;;;12.18;8.20;;;18.70;77.50;;;;;;5094522;28;20494;-74
2024/03/22 10:07:25;;;;;;;15.65;8.82;;;18.70;76.80;;;;;;5094446;28;20024;-74
2024/03/22 10:09:58;;;;;;;13.07;8.18;;;18.70;76.60;;;;;;5094060;28;20186;-73
2024/03/22 10:12:25;;;;;;;10.93;7.93;;;18.70;75.80;;;;;;5094029;28;20124;-73
2024/03/22 10:14:53;;;;;;;13.50;8.13;;;18.70;76.10;;;;;;5093990;28;20044;-73
2024/03/22 10:17:18;;;;;;;12.65;9.23;;;18.80;75.90;;;;;;5093825;28;20024;-74
2024/03/22 10:19:44;;;;;;;12.23;7.85;;;19.00;75.80;;;;;;5093987;28;20032;-73
2024/03/22 10:22:10;;;;;;;11.68;7.88;;;19.10;75.60;;;;;;5093831;28;20024;-73
2024/03/22 10:24:35;;;;;;;12.02;7.43;;;19.20;74.90;;;;;;5075538;28;20388;-72
2024/03/22 10:27:01;;;;;;;13.68;7.55;;;19.30;74.30;;;;;;5093578;28;20391;-73
2024/03/22 10:29:27;;;;;;;11.52;7.35;;;19.30;74.30;;;;;;5093617;28;20085;-73
2024/03/22 10:31:55;;;;;;;12.30;6.88;;;19.50;74.40;;;;;;5093746;28;20085;-74
2024/03/22 10:34:21;;;;;;;9.52;6.47;;;19.60;73.60;;;;;;5093487;28;20031;-73
2024/03/22 10:36:48;;;;;;;10.63;6.18;;;19.60;73.10;;;;;;5093818;28;20039;-73
2024/03/22 10:39:18;;;;;;;8.55;5.93;;;19.60;72.60;;;;;;5093616;28;20035;-73
2024/03/22 10:41:45;;;;;;;11.73;6.03;;;19.70;72.00;;;;;;5093325;28;20028;-73
2024/03/22 10:44:12;;;;;;;12.80;5.90;;;19.80;72.00;;;;;;5093639;28;20052;-73
2024/03/22 10:46:42;;;;;;;10.63;5.90;;;19.80;71.00;;;;;;5093502;28;20136;-74
2024/03/22 10:49:08;;;;;;;7.72;5.18;;;19.80;70.90;;;;;;5093640;28;20028;-72
2024/03/22 10:51:35;;;;;;;8.73;4.97;;;19.90;71.00;;;;;;5093404;28;20055;-73
2024/03/22 10:54:03;;;;;;;8.48;5.10;;;20.00;71.00;;;;;;5093553;28;20035;-72
2024/03/22 10:56:46;;;;;;;8.07;5.13;;;20.10;70.20;;;;;;5093455;28;20050;-73
2024/03/22 10:59:19;;;;;;;12.70;5.10;;;20.10;70.00;;;;;;5093223;28;20024;-72
2024/03/22 11:01:46;;;;;;;16.70;4.88;;;20.30;70.00;;;;;;5093166;28;20064;-74
2024/03/22 11:04:12;;;;;;;8.55;5.70;;;20.50;69.50;;;;;;5093277;28;20341;-75
2024/03/22 11:06:39;;;;;;;13.40;5.45;;;20.60;68.80;;;;;;5093176;28;20051;-72
2024/03/22 11:09:04;;;;;;;6.75;4.93;;;20.60;68.40;;;;;;5092966;28;20032;-74
2024/03/22 11:11:37;;;;;;;9.88;6.07;;;20.50;68.30;;;;;;5092614;28;20150;-74
2024/03/22 11:14:03;;;;;;;7.07;4.78;;;20.60;68.40;;;;;;5092868;28;20040;-73
2024/03/22 11:16:30;;;;;;;12.07;4.95;;;20.70;68.00;;;;;;5092730;28;20512;-73
2024/03/22 11:18:55;;;;;;;9.73;5.15;;;20.60;67.90;;;;;;5092850;28;20104;-73
2024/03/22 11:21:21;;;;;;;12.27;7.70;;;20.60;67.90;;;;;;5092953;28;20119;-73
2024/03/22 11:23:47;;;;;;;10.70;6.22;;;20.60;67.80;;;;;;5092846;28;20504;-73
2024/03/22 11:26:13;;;;;;;8.52;4.45;;;20.60;67.80;;;;;;5092590;28;20032;-71
2024/03/22 11:28:42;;;;;;;7.13;4.63;;;20.80;67.10;;;;;;5092755;28;20480;-73
2024/03/22 11:31:08;;;;;;;9.85;4.85;;;21.00;66.80;;;;;;5092960;28;20032;-74
2024/03/22 11:33:34;;;;;;;9.75;4.63;;;21.20;66.60;;;;;;5092996;28;20027;-73
2024/03/22 11:36:01;;;;;;;7.28;4.65;;;21.30;65.80;;;;;;5092601;28;20028;-74
2024/03/22 11:38:27;;;;;;;6.63;4.30;;;21.40;65.50;;;;;;5092937;28;20039;-72
2024/03/22 11:40:54;;;;;;;10.02;5.13;;;21.40;65.00;;;;;;5092882;28;20462;-72
2024/03/22 11:43:20;;;;;;;8.18;4.70;;;21.50;64.60;;;;;;5074660;28;20139;-73
2024/03/22 11:45:46;;;;;;;8.95;5.00;;;21.40;63.70;;;;;;5092896;28;20070;-74
2024/03/22 11:48:12;;;;;;;7.00;4.30;;;21.40;64.20;;;;;;5093205;28;20387;-72
2024/03/22 11:50:38;;;;;;;8.48;4.18;;;21.50;64.20;;;;;;5092765;28;20036;-72
2024/03/22 11:53:06;;;;;;;7.00;3.85;;;21.50;63.90;;;;;;5092937;28;20032;-73
2024/03/22 11:55:32;;;;;;;7.80;3.58;;;21.60;63.20;;;;;;5092952;28;20040;-74
2024/03/22 11:57:58;;;;;;;6.43;3.47;;;21.70;62.60;;;;;;5092690;28;20036;-73
2024/03/22 12:00:25;;;;;;;5.97;3.42;;;21.80;62.20;;;;;;5092970;28;20025;-73
2024/03/22 12:02:51;;;;;;;7.90;3.15;;;21.90;61.70;;;;;;5093464;28;20157;-75
2024/03/22 12:05:24;;;;;;;5.93;3.15;;;21.90;61.20;;;;;;5096931;28;20087;-73
2024/03/22 12:07:51;;;;;;;5.45;3.20;;;22.00;61.10;;;;;;5078467;28;20061;-74
2024/03/22 12:10:17;;;;;;;6.35;3.30;;;22.00;61.20;;;;;;5078828;28;20454;-74
2024/03/22 12:12:43;;;;;;;5.65;3.17;;;22.10;60.70;;;;;;5096849;28;20340;-74
2024/03/22 12:15:09;;;;;;;6.72;3.72;;;22.10;60.40;;;;;;5097208;28;20040;-74
2024/03/22 12:17:36;;;;;;;6.60;3.90;;;22.10;60.70;;;;;;5079093;28;20529;-74
2024/03/22 12:20:03;;;;;;;6.93;3.72;;;22.20;60.70;;;;;;5110585;28;20043;-73
2024/03/22 12:22:29;;;;;;;6.25;3.08;;;22.30;60.30;;;;;;5117657;28;20091;-74
2024/03/22 12:24:55;;;;;;;6.53;3.00;;;22.50;60.00;;;;;;5097663;28;20048;-73
2024/03/22 12:27:21;;;;;;;6.18;3.03;;;22.50;59.60;;;;;;5097730;28;20032;-73
2024/03/22 12:29:47;;;;;;;5.70;2.90;;;22.50;59.30;;;;;;5096792;28;20080;-74
2024/03/22 12:32:12;;;;;;;7.05;3.20;;;22.60;59.20;;;;;;5096666;28;20112;-74
2024/03/22 12:34:38;;;;;;;8.98;3.30;;;22.70;58.70;;;;;;5096292;28;20115;-74
2024/03/22 12:37:04;;;;;;;7.18;3.60;;;22.60;58.30;;;;;;5096480;28;20024;-74
2024/03/22 12:39:32;;;;;;;6.95;3.38;;;22.70;58.40;;;;;;5096340;28;20039;-73
2024/03/22 12:41:58;;;;;;;8.25;3.08;;;22.70;58.10;;;;;;5096095;28;20054;-74
2024/03/22 12:44:23;;;;;;;5.32;2.83;;;22.80;58.10;;;;;;5096338;28;20071;-74
2024/03/22 12:46:51;;;;;;;6.55;2.95;;;22.80;57.60;;;;;;5096276;28;20085;-74
2024/03/22 12:49:17;;;;;;;6.32;3.20;;;22.80;57.50;;;;;;5096050;28;20039;-74
2024/03/22 12:51:42;;;;;;;5.15;2.90;;;22.80;57.50;;;;;;5096034;28;20051;-73
2024/03/22 12:54:09;;;;;;;8.65;3.42;;;22.90;57.40;;;;;;5077730;28;20395;-72
2024/03/22 12:56:36;;;;;;;6.05;3.17;;;22.90;57.10;;;;;;5095542;28;20135;-74
2024/03/22 12:59:02;;;;;;;7.00;3.35;;;22.80;57.40;;;;;;5096017;28;20353;-73
2024/03/22 13:01:28;;;;;;;5.75;3.35;;;22.80;57.60;;;;;;5096364;28;20032;-74
2024/03/22 13:03:54;;;;;;;8.60;3.25;;;22.80;57.70;;;;;;5096098;28;20040;-74
2024/03/22 13:06:20;;;;;;;4.63;2.83;;;22.70;57.80;;;;;;5077930;28;20442;-74
2024/03/22 13:08:46;;;;;;;7.10;2.78;;;22.60;57.70;;;;;;5095686;28;20039;-73
2024/03/22 13:11:12;;;;;;;6.95;3.00;;;22.40;57.60;;;;;;5077568;28;20499;-73
2024/03/22 13:13:38;;;;;;;6.18;3.17;;;22.40;57.90;;;;;;5095608;28;20069;-74
2024/03/22 13:16:04;;;;;;;7.63;3.97;;;22.50;57.70;;;;;;5094929;28;20044;-73
2024/03/22 13:18:30;;;;;;;10.05;3.83;;;22.50;57.70;;;;;;5095056;28;20079;-73
2024/03/22 13:20:56;;;;;;;9.05;3.05;;;22.40;57.60;;;;;;5095212;28;20082;-73
2024/03/22 13:23:22;;;;;;;6.78;4.00;;;22.50;57.50;;;;;;5094802;28;20040;-74
2024/03/22 13:25:48;;;;;;;7.38;3.08;;;22.70;57.50;;;;;;5095059;28;20368;-73
2024/03/22 13:28:14;;;;;;;6.20;3.60;;;22.80;57.40;;;;;;5095281;28;20028;-74
2024/03/22 13:30:40;;;;;;;9.95;3.38;;;23.00;57.40;;;;;;5095287;28;20036;-76
2024/03/22 13:33:07;;;;;;;7.57;3.22;;;23.10;57.00;;;;;;5094888;28;20346;-74
2024/03/22 13:35:34;;;;;;;6.28;3.15;;;23.20;56.90;;;;;;5094813;28;20039;-73
2024/03/22 13:38:00;;;;;;;16.23;3.90;;;23.30;56.90;;;;;;5094788;28;20038;-74
2024/03/22 13:40:26;;;;;;;12.85;4.45;;;23.50;57.20;;;;;;5094902;28;20042;-73